Time;durP1;ratioP1;P1;durP2;ratioP2;P2;SDS_P1;SDS_P2;PMS_P1;PMS_P2;Temp;Humidity;BMP_temperature;BMP_pressure;BME280_temperature;BME280_humidity;BME280_pressure;Samples;Min_cycle;Max_cycle;Signal;HPM_P1;HPM_P2
2022/01/28 00:00:19;;;;;;;51.67;26.52;;;;;;;;;;6249959;28;20126;-65
2022/01/28 00:03:21;;;;;;;53.38;26.33;;;;;;;;;;6257359;28;20045;-65
2022/01/28 00:06:24;;;;;;;54.03;26.95;;;;;;;;;;6263105;28;20077;-65
2022/01/28 00:09:26;;;;;;;54.17;26.23;;;;;;;;;;6249505;28;20132;-65
2022/01/28 00:12:29;;;;;;;50.35;24.67;;;;;;;;;;6250204;28;20058;-65
2022/01/28 00:15:35;;;;;;;55.83;26.95;;;;;;;;;;6257387;28;20563;-66
2022/01/28 00:19:00;;;;;;;53.53;27.13;;;;;;;;;;6256050;28;20055;-66
2022/01/28 00:38:51;;;;;;;54.60;26.90;;;;;;;;;;6249964;28;20241;-66
2022/01/28 00:41:52;;;;;;;48.75;25.67;;;;;;;;;;6254293;28;20520;-67
2022/01/28 00:44:56;;;;;;;48.88;25.00;;;;;;;;;;6256877;28;20057;-67
2022/01/28 00:47:58;;;;;;;51.10;26.70;;;;;;;;;;6248838;28;20038;-65
2022/01/28 00:51:00;;;;;;;55.13;26.95;;;;;;;;;;6249750;28;20410;-66
2022/01/28 00:54:03;;;;;;;53.13;25.95;;;;;;;;;;6250458;28;20045;-65
2022/01/28 00:57:05;;;;;;;51.38;27.02;;;;;;;;;;6247640;28;20084;-65
2022/01/28 01:00:09;;;;;;;54.40;27.48;;;;;;;;;;6251426;28;20091;-66
2022/01/28 01:03:11;;;;;;;54.47;26.02;;;;;;;;;;6248893;28;20118;-67
2022/01/28 01:06:13;;;;;;;55.38;27.65;;;;;;;;;;6257502;28;20061;-66
2022/01/28 01:09:15;;;;;;;50.15;27.17;;;;;;;;;;6257794;28;20179;-66
2022/01/28 01:12:20;;;;;;;54.92;28.13;;;;;;;;;;6250186;28;20489;-65
2022/01/28 01:15:26;;;;;;;53.25;26.98;;;;;;;;;;6251147;28;20198;-65
2022/01/28 01:18:34;;;;;;;54.72;28.88;;;;;;;;;;6253378;28;20060;-65
2022/01/28 01:21:38;;;;;;;52.50;27.45;;;;;;;;;;6257994;28;20101;-65
2022/01/28 01:24:49;;;;;;;53.33;27.67;;;;;;;;;;6256398;28;20049;-65
2022/01/28 01:27:54;;;;;;;52.65;28.08;;;;;;;;;;6255136;28;20418;-65
2022/01/28 01:30:57;;;;;;;56.42;28.98;;;;;;;;;;6254433;28;20045;-65
2022/01/28 01:34:05;;;;;;;50.88;27.23;;;;;;;;;;6254062;28;20065;-65
2022/01/28 01:37:08;;;;;;;54.05;28.08;;;;;;;;;;6252857;28;20048;-66
2022/01/28 01:40:13;;;;;;;57.13;29.30;;;;;;;;;;6254008;28;20045;-65
2022/01/28 01:43:20;;;;;;;53.45;29.30;;;;;;;;;;6254311;28;20054;-65
2022/01/28 01:46:33;;;;;;;50.58;27.13;;;;;;;;;;6254133;28;20146;-65
2022/01/28 01:52:53;;;;;;;49.30;26.63;;;;;;;;;;6255676;28;20049;-65
2022/01/28 01:55:57;;;;;;;49.88;26.63;;;;;;;;;;6256166;28;20056;-65
2022/01/28 01:58:59;;;;;;;54.65;27.23;;;;;;;;;;6260171;28;20052;-65
2022/01/28 02:02:01;;;;;;;56.03;27.08;;;;;;;;;;6260041;28;20048;-65
2022/01/28 02:05:02;;;;;;;50.97;26.27;;;;;;;;;;6262081;28;20056;-65
2022/01/28 02:08:06;;;;;;;50.10;26.77;;;;;;;;;;6262180;28;20073;-64
2022/01/28 02:11:09;;;;;;;48.90;27.70;;;;;;;;;;6263613;28;20564;-65
2022/01/28 02:14:10;;;;;;;53.85;27.10;;;;;;;;;;6259171;28;20128;-65
2022/01/28 02:17:12;;;;;;;55.05;27.55;;;;;;;;;;6259789;28;20171;-65
2022/01/28 02:20:22;;;;;;;56.42;29.02;;;;;;;;;;6259208;28;20045;-65
2022/01/28 02:23:24;;;;;;;57.63;28.80;;;;;;;;;;6257107;28;20044;-64
2022/01/28 02:26:25;;;;;;;57.58;30.38;;;;;;;;;;6258170;28;20084;-65
2022/01/28 02:29:30;;;;;;;64.95;30.92;;;;;;;;;;6258150;28;20512;-65
2022/01/28 02:32:31;;;;;;;62.25;32.65;;;;;;;;;;6256658;28;20049;-65
2022/01/28 02:35:34;;;;;;;64.50;32.20;;;;;;;;;;6259258;28;20056;-65
2022/01/28 02:38:36;;;;;;;59.60;32.70;;;;;;;;;;6260258;28;20587;-65
2022/01/28 02:41:41;;;;;;;60.22;31.40;;;;;;;;;;6257521;28;20049;-65
2022/01/28 02:44:48;;;;;;;59.90;30.70;;;;;;;;;;6252421;28;20038;-65
2022/01/28 02:47:54;;;;;;;54.95;30.77;;;;;;;;;;6255146;28;20131;-65
2022/01/28 02:51:04;;;;;;;61.20;31.02;;;;;;;;;;6256943;28;20049;-65
2022/01/28 02:54:14;;;;;;;57.78;30.58;;;;;;;;;;6257121;28;20049;-65
2022/01/28 02:57:20;;;;;;;65.18;32.60;;;;;;;;;;6255297;28;20095;-65
2022/01/28 03:00:22;;;;;;;66.72;30.92;;;;;;;;;;6256711;28;20057;-65
2022/01/28 03:03:24;;;;;;;59.03;30.52;;;;;;;;;;6257243;28;20655;-64
2022/01/28 03:06:27;;;;;;;55.80;30.67;;;;;;;;;;6257209;28;20096;-65
2022/01/28 03:09:47;;;;;;;57.33;30.00;;;;;;;;;;6259432;28;20199;-65
2022/01/28 03:13:02;;;;;;;58.58;29.30;;;;;;;;;;6257969;28;20052;-65
2022/01/28 03:16:10;;;;;;;56.97;29.35;;;;;;;;;;6255728;28;20136;-65
2022/01/28 03:19:17;;;;;;;54.15;28.88;;;;;;;;;;6252716;28;20056;-65
2022/01/28 03:22:20;;;;;;;57.65;30.00;;;;;;;;;;6255070;28;20061;-65
2022/01/28 03:25:21;;;;;;;54.67;27.05;;;;;;;;;;6250403;28;20045;-65
2022/01/28 03:28:23;;;;;;;54.22;29.70;;;;;;;;;;6260052;28;20045;-65
2022/01/28 03:31:25;;;;;;;56.80;29.60;;;;;;;;;;6255567;28;20077;-65
2022/01/28 03:34:26;;;;;;;53.33;27.80;;;;;;;;;;6254522;28;20079;-66
2022/01/28 03:37:29;;;;;;;59.90;30.40;;;;;;;;;;6256073;28;20178;-65
2022/01/28 03:40:33;;;;;;;55.92;29.65;;;;;;;;;;6254575;28;20068;-66
2022/01/28 03:43:35;;;;;;;55.28;29.00;;;;;;;;;;6256902;28;20413;-65
2022/01/28 03:46:36;;;;;;;57.45;29.65;;;;;;;;;;6250917;28;20513;-66
2022/01/28 03:49:38;;;;;;;59.90;30.60;;;;;;;;;;6253124;28;20049;-65
2022/01/28 03:52:41;;;;;;;58.22;30.40;;;;;;;;;;6253830;28;20080;-65
2022/01/28 03:55:42;;;;;;;55.63;29.35;;;;;;;;;;6253865;28;20049;-65
2022/01/28 03:58:44;;;;;;;57.78;30.90;;;;;;;;;;6262754;28;20175;-65
2022/01/28 04:01:48;;;;;;;55.22;28.35;;;;;;;;;;6255493;28;20049;-65
2022/01/28 04:11:30;;;;;;;50.88;28.65;;;;;;;;;;6258063;28;20057;-65
2022/01/28 04:14:43;;;;;;;49.47;28.08;;;;;;;;;;6252973;28;20057;-65
2022/01/28 04:17:44;;;;;;;55.72;29.08;;;;;;;;;;6255543;28;20045;-65
2022/01/28 04:20:46;;;;;;;52.47;28.52;;;;;;;;;;6253636;28;20532;-65
2022/01/28 04:23:49;;;;;;;54.08;29.35;;;;;;;;;;6253412;28;20143;-65
2022/01/28 04:26:50;;;;;;;51.88;29.70;;;;;;;;;;6252045;28;20101;-65
2022/01/28 04:29:52;;;;;;;55.28;30.50;;;;;;;;;;6258666;28;20128;-65
2022/01/28 04:32:54;;;;;;;53.35;28.95;;;;;;;;;;6248630;28;20041;-65
2022/01/28 04:35:56;;;;;;;53.90;29.60;;;;;;;;;;6249589;28;20054;-65
2022/01/28 04:39:06;;;;;;;52.55;28.70;;;;;;;;;;6251869;28;20554;-65
2022/01/28 04:42:17;;;;;;;61.30;30.70;;;;;;;;;;6249999;28;20049;-65
2022/01/28 04:45:25;;;;;;;54.55;28.77;;;;;;;;;;6258371;28;20418;-66
2022/01/28 04:48:33;;;;;;;59.00;29.75;;;;;;;;;;6250552;28;20077;-66
2022/01/28 04:51:51;;;;;;;53.35;29.73;;;;;;;;;;6252446;28;20072;-65
2022/01/28 04:55:05;;;;;;;57.55;28.80;;;;;;;;;;6250390;28;20056;-66
2022/01/28 04:58:18;;;;;;;53.88;29.83;;;;;;;;;;6249613;28;20056;-65
2022/01/28 05:01:45;;;;;;;49.90;28.95;;;;;;;;;;6252237;28;20404;-65
2022/01/28 05:05:03;;;;;;;55.38;28.33;;;;;;;;;;6248490;28;20057;-65
2022/01/28 05:08:28;;;;;;;52.63;28.10;;;;;;;;;;6247891;28;20057;-65
2022/01/28 05:15:14;;;;;;;51.65;28.75;;;;;;;;;;6247638;28;20393;-65
2022/01/28 05:25:28;;;;;;;52.85;27.92;;;;;;;;;;6250572;28;20041;-65
2022/01/28 05:28:25;;;;;;;50.97;27.48;;;;;;;;;;6253146;28;20053;-65
2022/01/28 05:31:27;;;;;;;51.53;28.98;;;;;;;;;;6251359;28;20520;-65
2022/01/28 05:34:29;;;;;;;56.25;28.63;;;;;;;;;;6255161;28;20456;-66
2022/01/28 05:37:30;;;;;;;52.85;28.63;;;;;;;;;;6261580;28;20107;-65
2022/01/28 05:40:32;;;;;;;56.08;28.75;;;;;;;;;;6260134;28;20107;-65
2022/01/28 05:43:35;;;;;;;50.33;28.17;;;;;;;;;;6265207;28;20061;-65
2022/01/28 05:46:37;;;;;;;49.83;27.50;;;;;;;;;;6262922;28;20458;-65
2022/01/28 05:49:38;;;;;;;49.30;26.80;;;;;;;;;;6263921;28;20073;-65
2022/01/28 05:52:40;;;;;;;49.10;28.00;;;;;;;;;;6264945;28;20053;-65
2022/01/28 05:55:42;;;;;;;47.20;26.52;;;;;;;;;;6265627;28;20079;-65
2022/01/28 05:58:45;;;;;;;52.83;28.02;;;;;;;;;;6263664;28;20139;-65
2022/01/28 06:01:46;;;;;;;48.75;27.15;;;;;;;;;;6267295;28;20098;-65
2022/01/28 06:04:48;;;;;;;52.28;27.25;;;;;;;;;;6259017;28;20048;-65
2022/01/28 06:07:50;;;;;;;52.58;28.85;;;;;;;;;;6256463;28;20049;-66
2022/01/28 06:10:51;;;;;;;47.72;28.77;;;;;;;;;;6262241;28;20097;-66
2022/01/28 06:13:54;;;;;;;48.47;26.65;;;;;;;;;;6257610;28;20442;-65
2022/01/28 06:16:56;;;;;;;46.17;27.17;;;;;;;;;;6261674;28;20095;-65
2022/01/28 06:19:57;;;;;;;46.70;24.80;;;;;;;;;;6262333;28;20069;-65
2022/01/28 06:22:59;;;;;;;49.92;26.90;;;;;;;;;;6260248;28;20076;-65
2022/01/28 06:26:01;;;;;;;51.78;24.92;;;;;;;;;;6264698;28;20041;-66
2022/01/28 06:29:04;;;;;;;48.88;25.20;;;;;;;;;;6264948;28;20041;-66
2022/01/28 06:32:07;;;;;;;49.33;26.60;;;;;;;;;;6257063;28;20086;-67
2022/01/28 06:35:09;;;;;;;44.22;24.60;;;;;;;;;;6258791;28;20073;-66
2022/01/28 06:38:11;;;;;;;45.70;24.55;;;;;;;;;;6263042;28;20085;-66
2022/01/28 06:41:12;;;;;;;50.28;24.48;;;;;;;;;;6259460;28;20132;-66
2022/01/28 06:44:15;;;;;;;49.13;24.92;;;;;;;;;;6265868;28;20543;-65
2022/01/28 06:47:17;;;;;;;43.58;23.20;;;;;;;;;;6260574;28;20136;-65
2022/01/28 06:50:19;;;;;;;46.10;22.83;;;;;;;;;;6263570;28;20049;-65
2022/01/28 06:53:20;;;;;;;42.97;23.70;;;;;;;;;;6257899;28;20057;-65
2022/01/28 06:56:22;;;;;;;42.15;24.15;;;;;;;;;;6263701;28;20120;-66
2022/01/28 06:59:25;;;;;;;46.75;22.42;;;;;;;;;;6265609;28;20080;-65
2022/01/28 07:02:28;;;;;;;44.53;23.13;;;;;;;;;;6260742;28;20436;-65
2022/01/28 07:05:29;;;;;;;40.10;21.85;;;;;;;;;;6257911;28;20409;-65
2022/01/28 07:08:31;;;;;;;43.10;23.05;;;;;;;;;;6261851;28;20480;-65
2022/01/28 07:11:33;;;;;;;43.47;23.08;;;;;;;;;;6258320;28;20049;-65
2022/01/28 07:14:35;;;;;;;38.80;22.08;;;;;;;;;;6260897;28;20068;-65
2022/01/28 07:17:37;;;;;;;41.95;22.83;;;;;;;;;;6262649;28;20076;-65
2022/01/28 07:20:39;;;;;;;35.65;21.17;;;;;;;;;;6258267;28;20124;-65
2022/01/28 07:23:40;;;;;;;41.72;22.98;;;;;;;;;;6261426;28;20053;-65
2022/01/28 07:26:42;;;;;;;39.88;21.73;;;;;;;;;;6263084;28;20061;-64
2022/01/28 07:29:47;;;;;;;40.67;22.00;;;;;;;;;;6262082;28;20132;-65
2022/01/28 07:32:49;;;;;;;;;;;;;;;;;;6261519;28;20120;-65
2022/01/28 07:35:51;;;;;;;41.90;22.63;;;;;;;;;;6263133;28;19983;-65
2022/01/28 07:38:52;;;;;;;44.88;22.00;;;;;;;;;;6260709;28;20163;-65
2022/01/28 07:41:54;;;;;;;37.35;21.58;;;;;;;;;;6259877;28;20118;-65
2022/01/28 07:44:57;;;;;;;40.60;21.20;;;;;;;;;;6260948;28;20084;-65
2022/01/28 07:47:59;;;;;;;47.38;20.70;;;;;;;;;;6262828;28;20041;-64
2022/01/28 07:51:00;;;;;;;37.20;20.98;;;;;;;;;;6259568;28;20049;-65
2022/01/28 07:54:03;;;;;;;40.80;21.67;;;;;;;;;;6264290;28;20122;-65
2022/01/28 07:57:05;;;;;;;39.03;21.75;;;;;;;;;;6256666;28;20441;-65
2022/01/28 08:00:10;;;;;;;43.92;21.30;;;;;;;;;;6262864;28;20055;-66
2022/01/28 08:03:12;;;;;;;34.08;20.20;;;;;;;;;;6265294;28;20545;-66
2022/01/28 08:06:14;;;;;;;46.50;21.58;;;;;;;;;;6253778;28;20052;-66
2022/01/28 08:09:15;;;;;;;36.65;21.80;;;;;;;;;;6261219;28;20068;-65
2022/01/28 08:12:17;;;;;;;37.70;21.92;;;;;;;;;;6262117;28;20214;-66
2022/01/28 08:15:21;;;;;;;38.03;20.70;;;;;;;;;;6256724;28;20041;-66
2022/01/28 08:18:22;;;;;;;44.10;21.25;;;;;;;;;;6258911;28;20468;-66
2022/01/28 08:21:24;;;;;;;40.92;20.88;;;;;;;;;;6258211;28;20217;-66
2022/01/28 08:24:26;;;;;;;34.17;20.17;;;;;;;;;;6257400;28;20612;-66
2022/01/28 08:27:27;;;;;;;36.53;20.73;;;;;;;;;;6259910;28;20041;-66
2022/01/28 08:30:31;;;;;;;36.78;20.85;;;;;;;;;;6251996;28;20062;-66
2022/01/28 08:33:33;;;;;;;45.83;21.25;;;;;;;;;;6262018;28;20055;-65
2022/01/28 08:36:34;;;;;;;97.15;25.83;;;;;;;;;;6254514;28;20564;-65
2022/01/28 08:39:36;;;;;;;34.60;20.23;;;;;;;;;;6255467;28;20062;-65
2022/01/28 08:42:38;;;;;;;47.42;20.90;;;;;;;;;;6255975;28;20124;-65
2022/01/28 08:45:41;;;;;;;36.85;19.85;;;;;;;;;;6257307;28;20084;-65
2022/01/28 08:48:43;;;;;;;37.23;20.20;;;;;;;;;;6254076;28;20183;-64
2022/01/28 08:51:45;;;;;;;37.25;20.73;;;;;;;;;;6253447;28;20045;-65
2022/01/28 08:54:48;;;;;;;37.95;21.08;;;;;;;;;;6252928;28;20049;-65
2022/01/28 08:57:49;;;;;;;32.10;19.25;;;;;;;;;;6255853;28;20057;-63
2022/01/28 09:00:53;;;;;;;37.33;20.58;;;;;;;;;;6251416;28;20045;-65
2022/01/28 09:03:54;;;;;;;34.63;19.95;;;;;;;;;;6252455;28;20484;-65
2022/01/28 09:06:56;;;;;;;32.70;19.25;;;;;;;;;;6263724;28;20188;-65
2022/01/28 09:10:03;;;;;;;36.88;20.15;;;;;;;;;;6257856;28;20081;-65
2022/01/28 09:13:22;;;;;;;34.40;19.73;;;;;;;;;;6255125;28;20548;-65
2022/01/28 09:16:25;;;;;;;34.20;20.27;;;;;;;;;;6258083;28;20144;-65
2022/01/28 09:19:26;;;;;;;30.35;18.27;;;;;;;;;;6253607;28;20127;-66
2022/01/28 09:22:28;;;;;;;30.98;18.58;;;;;;;;;;6253243;28;20073;-66
2022/01/28 09:25:30;;;;;;;37.38;18.55;;;;;;;;;;6250657;28;20179;-65
2022/01/28 09:28:31;;;;;;;33.17;18.88;;;;;;;;;;6252366;28;20049;-66
2022/01/28 09:31:35;;;;;;;32.10;18.92;;;;;;;;;;6256081;28;20041;-65
2022/01/28 09:34:36;;;;;;;36.22;18.60;;;;;;;;;;6257087;28;20123;-65
2022/01/28 09:37:38;;;;;;;32.53;18.33;;;;;;;;;;6259343;28;20053;-65
2022/01/28 09:40:39;;;;;;;32.10;17.08;;;;;;;;;;6258674;28;20135;-65
2022/01/28 09:43:43;;;;;;;29.40;17.50;;;;;;;;;;6254167;28;20049;-65
2022/01/28 09:46:46;;;;;;;37.97;17.30;;;;;;;;;;6264702;28;20052;-66
2022/01/28 09:49:48;;;;;;;28.73;14.55;;;;;;;;;;6255397;28;20068;-65
2022/01/28 09:52:51;;;;;;;25.30;13.10;;;;;;;;;;6258063;28;20521;-66
2022/01/28 09:55:52;;;;;;;19.42;11.35;;;;;;;;;;6257335;28;20056;-66
2022/01/28 09:58:54;;;;;;;23.65;9.60;;;;;;;;;;6254724;28;20095;-66
2022/01/28 10:01:57;;;;;;;16.27;8.30;;;;;;;;;;6257535;28;20131;-66
2022/01/28 10:04:58;;;;;;;17.10;8.57;;;;;;;;;;6253840;28;20053;-65
2022/01/28 10:08:13;;;;;;;17.52;8.25;;;;;;;;;;6258061;28;20194;-66
2022/01/28 10:11:17;;;;;;;20.13;6.78;;;;;;;;;;6259296;28;20509;-66
2022/01/28 10:14:21;;;;;;;14.43;6.15;;;;;;;;;;6258865;28;20053;-66
2022/01/28 10:17:24;;;;;;;12.85;4.10;;;;;;;;;;6254029;28;20115;-67
2022/01/28 10:20:27;;;;;;;7.47;2.90;;;;;;;;;;6256660;28;20457;-66
2022/01/28 10:23:28;;;;;;;6.68;2.60;;;;;;;;;;6259017;28;20128;-66
2022/01/28 10:26:31;;;;;;;7.50;2.30;;;;;;;;;;6255541;28;20553;-65
2022/01/28 10:29:35;;;;;;;8.07;1.58;;;;;;;;;;6250103;28;20564;-65
2022/01/28 10:32:38;;;;;;;;;;;;;;;;;;6256807;28;20077;-66
2022/01/28 10:35:39;;;;;;;5.78;1.63;;;;;;;;;;6255525;28;20369;-65
2022/01/28 10:38:42;;;;;;;6.97;1.17;;;;;;;;;;6259390;28;20509;-66
2022/01/28 10:41:55;;;;;;;4.97;0.80;;;;;;;;;;6259886;28;20357;-65
2022/01/28 10:44:59;;;;;;;3.93;1.80;;;;;;;;;;6256106;28;20077;-67
2022/01/28 10:48:03;;;;;;;3.40;0.80;;;;;;;;;;6259999;28;20057;-66
2022/01/28 10:51:05;;;;;;;;;;;;;;;;;;6260185;28;20271;-65
2022/01/28 10:54:09;;;;;;;3.72;0.93;;;;;;;;;;6255974;28;20007;-65
2022/01/28 10:57:11;;;;;;;4.97;0.70;;;;;;;;;;6257685;28;20587;-66
2022/01/28 11:00:14;;;;;;;5.93;0.80;;;;;;;;;;6257399;28;20136;-65
2022/01/28 11:03:20;;;;;;;3.35;0.77;;;;;;;;;;6255805;28;20076;-65
2022/01/28 11:06:21;;;;;;;5.65;0.73;;;;;;;;;;6259704;28;20041;-66
2022/01/28 11:09:24;;;;;;;1.25;0.68;;;;;;;;;;6256848;28;20064;-67
2022/01/28 11:12:26;;;;;;;2.63;0.60;;;;;;;;;;6256485;28;20158;-66
2022/01/28 11:15:28;;;;;;;0.93;0.50;;;;;;;;;;6257998;28;20081;-66
2022/01/28 11:18:31;;;;;;;4.40;0.55;;;;;;;;;;6255932;28;20123;-65
2022/01/28 11:21:44;;;;;;;3.22;0.90;;;;;;;;;;6257475;28;20073;-66
2022/01/28 11:25:16;;;;;;;6.67;0.97;;;;;;;;;;6260310;28;20142;-65
2022/01/28 11:28:18;;;;;;;7.53;0.90;;;;;;;;;;6245016;28;20521;-65
2022/01/28 11:31:41;;;;;;;2.92;0.68;;;;;;;;;;6260126;28;20049;-66
2022/01/28 11:34:58;;;;;;;2.40;0.68;;;;;;;;;;6258637;28;20309;-65
2022/01/28 11:38:04;;;;;;;3.58;0.70;;;;;;;;;;6257835;28;20055;-66
2022/01/28 11:41:12;;;;;;;1.67;0.52;;;;;;;;;;6260490;28;20045;-66
2022/01/28 11:44:40;;;;;;;5.53;1.42;;;;;;;;;;6249638;28;20049;-65
2022/01/28 11:47:53;;;;;;;3.95;0.80;;;;;;;;;;6260135;28;20041;-63
2022/01/28 11:51:03;;;;;;;1.60;0.57;;;;;;;;;;6252889;28;20263;-63
2022/01/28 11:54:06;;;;;;;3.67;0.40;;;;;;;;;;6255626;28;20451;-65
2022/01/28 11:57:16;;;;;;;1.95;0.70;;;;;;;;;;6254388;28;20045;-65
2022/01/28 12:00:25;;;;;;;2.00;0.60;;;;;;;;;;6254694;28;20056;-65
2022/01/28 12:03:28;;;;;;;2.92;0.73;;;;;;;;;;6253947;28;20063;-63
2022/01/28 12:06:31;;;;;;;1.23;0.70;;;;;;;;;;6254703;28;20045;-63
2022/01/28 12:09:34;;;;;;;4.22;0.60;;;;;;;;;;6255452;28;20064;-65
2022/01/28 12:12:58;;;;;;;2.38;0.60;;;;;;;;;;6248278;28;20076;-66
2022/01/28 12:16:10;;;;;;;7.30;3.28;;;;;;;;;;6258052;28;20045;-65
2022/01/28 12:19:16;;;;;;;20.58;15.75;;;;;;;;;;6256610;28;20136;-65
2022/01/28 12:22:19;;;;;;;25.67;18.38;;;;;;;;;;6252595;28;20156;-65
2022/01/28 12:25:48;;;;;;;30.35;22.05;;;;;;;;;;6260820;28;20561;-65
2022/01/28 12:28:55;;;;;;;28.55;21.80;;;;;;;;;;6248928;28;20570;-65
2022/01/28 12:31:57;;;;;;;30.40;23.08;;;;;;;;;;6255149;28;20126;-64
2022/01/28 12:35:00;;;;;;;30.65;22.73;;;;;;;;;;6253135;28;20687;-66
2022/01/28 12:38:04;;;;;;;30.08;23.75;;;;;;;;;;6254599;28;20085;-65
2022/01/28 12:41:08;;;;;;;29.85;22.95;;;;;;;;;;6257666;28;20056;-65
2022/01/28 12:44:11;;;;;;;34.08;23.88;;;;;;;;;;6251917;28;20041;-66
2022/01/28 12:47:13;;;;;;;31.53;23.63;;;;;;;;;;6250688;28;20162;-62
2022/01/28 12:50:15;;;;;;;30.40;22.65;;;;;;;;;;6251802;28;20064;-65
2022/01/28 12:53:28;;;;;;;;;;;;;;;;;;6255699;28;20165;-65
2022/01/28 12:56:31;;;;;;;32.42;24.00;;;;;;;;;;6254056;28;20006;-63
2022/01/28 12:59:33;;;;;;;32.20;22.88;;;;;;;;;;6253994;28;20064;-64
2022/01/28 13:02:35;;;;;;;35.20;24.05;;;;;;;;;;6242924;28;20044;-64
2022/01/28 13:05:43;;;;;;;31.95;22.85;;;;;;;;;;6249247;28;20117;-65
2022/01/28 13:08:47;;;;;;;31.75;22.13;;;;;;;;;;6248289;28;20485;-65
2022/01/28 13:11:50;;;;;;;33.03;23.30;;;;;;;;;;6256294;28;20072;-65
2022/01/28 13:14:52;;;;;;;35.65;23.17;;;;;;;;;;6249319;28;20068;-64
2022/01/28 13:17:55;;;;;;;30.83;24.23;;;;;;;;;;6246305;28;20494;-65
2022/01/28 13:20:57;;;;;;;31.88;23.08;;;;;;;;;;6251295;28;20060;-65
2022/01/28 13:24:12;;;;;;;34.17;24.75;;;;;;;;;;6256366;28;20372;-65
2022/01/28 13:27:14;;;;;;;35.65;25.10;;;;;;;;;;6252283;28;20088;-65
2022/01/28 13:30:16;;;;;;;34.78;25.10;;;;;;;;;;6253431;28;20120;-66
2022/01/28 13:33:28;;;;;;;36.30;25.50;;;;;;;;;;6243153;28;20071;-66
2022/01/28 13:36:46;;;;;;;34.08;24.73;;;;;;;;;;6253741;28;20052;-65
2022/01/28 13:39:49;;;;;;;36.58;24.15;;;;;;;;;;6248887;28;20045;-65
2022/01/28 13:42:58;;;;;;;43.65;26.50;;;;;;;;;;6249457;28;20056;-65
2022/01/28 13:46:05;;;;;;;44.97;25.35;;;;;;;;;;6253749;28;20446;-65
2022/01/28 13:49:15;;;;;;;36.78;25.88;;;;;;;;;;6249275;28;20049;-65
2022/01/28 13:52:23;;;;;;;37.97;25.13;;;;;;;;;;6248208;28;20085;-63
2022/01/28 13:55:36;;;;;;;37.80;25.13;;;;;;;;;;6252837;28;20057;-65
2022/01/28 13:58:46;;;;;;;34.40;23.85;;;;;;;;;;6256684;28;20124;-66
2022/01/28 14:01:49;;;;;;;35.45;24.55;;;;;;;;;;6258105;28;20053;-65
2022/01/28 14:04:53;;;;;;;36.57;23.97;;;;;;;;;;6254735;28;20050;-63
2022/01/28 14:07:55;;;;;;;35.90;24.48;;;;;;;;;;6259123;28;20510;-65
2022/01/28 14:10:58;;;;;;;36.28;24.38;;;;;;;;;;6258054;28;20065;-63
2022/01/28 14:14:13;;;;;;;35.33;25.27;;;;;;;;;;6252733;28;20173;-65
2022/01/28 14:17:15;;;;;;;35.05;26.15;;;;;;;;;;6251345;28;20056;-65
2022/01/28 14:20:16;;;;;;;39.53;24.90;;;;;;;;;;6253409;28;20084;-65
2022/01/28 14:23:18;;;;;;;35.60;24.88;;;;;;;;;;6253745;28;20049;-65
2022/01/28 14:26:21;;;;;;;35.70;23.85;;;;;;;;;;6259486;28;20043;-64
2022/01/28 14:29:35;;;;;;;34.53;24.33;;;;;;;;;;6254260;28;20271;-64
2022/01/28 14:32:37;;;;;;;34.80;23.98;;;;;;;;;;6254996;28;20049;-64
2022/01/28 14:35:39;;;;;;;34.67;23.38;;;;;;;;;;6260630;28;20184;-64
2022/01/28 14:38:42;;;;;;;37.13;23.92;;;;;;;;;;6256901;28;20127;-64
2022/01/28 14:41:47;;;;;;;37.08;22.77;;;;;;;;;;6260640;28;20045;-65
2022/01/28 14:44:50;;;;;;;35.90;22.05;;;;;;;;;;6266435;28;20068;-64
2022/01/28 14:47:51;;;;;;;31.23;21.45;;;;;;;;;;6254668;28;20041;-65
2022/01/28 14:50:53;;;;;;;35.83;22.30;;;;;;;;;;6264734;28;20135;-63
2022/01/28 14:53:54;;;;;;;31.33;22.33;;;;;;;;;;6255687;28;20128;-65
2022/01/28 14:56:59;;;;;;;34.15;22.48;;;;;;;;;;6258627;28;20192;-66
2022/01/28 15:00:00;;;;;;;32.65;21.50;;;;;;;;;;6256996;28;20135;-65
2022/01/28 15:03:02;;;;;;;32.20;22.13;;;;;;;;;;6258243;28;20083;-65
2022/01/28 15:06:04;;;;;;;34.83;22.48;;;;;;;;;;6258348;28;20398;-65
2022/01/28 15:09:05;;;;;;;36.17;21.92;;;;;;;;;;6253323;28;20056;-65
2022/01/28 15:12:10;;;;;;;35.35;21.60;;;;;;;;;;6256323;28;20071;-65
2022/01/28 15:15:11;;;;;;;34.55;21.92;;;;;;;;;;6261729;28;20374;-64
2022/01/28 15:18:13;;;;;;;32.97;22.88;;;;;;;;;;6254352;28;20049;-65
2022/01/28 15:21:15;;;;;;;36.60;23.92;;;;;;;;;;6249667;28;20512;-65
2022/01/28 15:24:16;;;;;;;35.22;25.00;;;;;;;;;;6258751;28;20049;-66
2022/01/28 15:27:20;;;;;;;38.58;24.42;;;;;;;;;;6258035;28;20215;-65
2022/01/28 15:34:11;;;;;;;34.70;23.70;;;;;;;;;;6260983;28;20049;-65
2022/01/28 15:37:09;;;;;;;38.08;24.63;;;;;;;;;;6256314;28;20365;-64
2022/01/28 15:40:12;;;;;;;35.78;24.17;;;;;;;;;;6258715;28;20131;-64
2022/01/28 15:43:15;;;;;;;40.25;24.23;;;;;;;;;;6254714;28;20136;-65
2022/01/28 15:46:16;;;;;;;38.28;24.65;;;;;;;;;;6262698;28;20140;-65
2022/01/28 15:49:18;;;;;;;39.58;25.27;;;;;;;;;;6254177;28;20493;-64
2022/01/28 15:52:19;;;;;;;41.17;25.75;;;;;;;;;;6254386;28;20044;-64
2022/01/28 15:55:21;;;;;;;35.88;24.08;;;;;;;;;;6254518;28;20127;-65
2022/01/28 15:58:24;;;;;;;38.30;24.05;;;;;;;;;;6255868;28;20474;-64
2022/01/28 16:01:27;;;;;;;35.90;23.75;;;;;;;;;;6255909;28;20192;-65
2022/01/28 16:04:29;;;;;;;40.90;23.95;;;;;;;;;;6253966;28;20101;-64
2022/01/28 16:07:30;;;;;;;37.75;23.67;;;;;;;;;;6254615;28;20072;-64
2022/01/28 16:10:36;;;;;;;37.58;24.20;;;;;;;;;;6254568;28;20133;-65
2022/01/28 16:13:54;;;;;;;42.05;24.70;;;;;;;;;;6255219;28;20045;-64
2022/01/28 16:17:12;;;;;;;38.10;23.60;;;;;;;;;;6255897;28;20053;-65
2022/01/28 16:20:14;;;;;;;41.67;26.25;;;;;;;;;;6256629;28;20234;-65
2022/01/28 16:23:16;;;;;;;40.60;25.25;;;;;;;;;;6256163;28;20053;-64
2022/01/28 16:26:18;;;;;;;38.05;24.48;;;;;;;;;;6253849;28;20060;-65
2022/01/28 16:29:21;;;;;;;43.15;24.30;;;;;;;;;;6258873;28;20151;-64
2022/01/28 16:32:23;;;;;;;46.40;25.48;;;;;;;;;;6253446;28;20114;-66
2022/01/28 16:35:25;;;;;;;40.83;23.75;;;;;;;;;;6258796;28;20186;-64
2022/01/28 16:38:29;;;;;;;42.47;24.45;;;;;;;;;;6259128;28;20060;-64
2022/01/28 16:41:39;;;;;;;42.70;24.52;;;;;;;;;;6257019;28;20273;-64
2022/01/28 16:44:49;;;;;;;38.05;24.15;;;;;;;;;;6258048;28;20681;-64
2022/01/28 16:47:51;;;;;;;45.88;24.70;;;;;;;;;;6252948;28;20056;-65
2022/01/28 16:50:53;;;;;;;38.75;23.90;;;;;;;;;;6253816;28;20127;-65
2022/01/28 16:53:54;;;;;;;34.40;20.20;;;;;;;;;;6252731;28;20501;-65
2022/01/28 16:56:56;;;;;;;37.67;21.35;;;;;;;;;;6249335;28;20138;-65
2022/01/28 16:59:59;;;;;;;34.13;20.80;;;;;;;;;;6254823;28;20049;-69
2022/01/28 17:03:00;;;;;;;36.95;22.08;;;;;;;;;;6249943;28;20456;-65
2022/01/28 17:06:05;;;;;;;29.55;18.60;;;;;;;;;;6249950;28;20140;-65
2022/01/28 17:09:06;;;;;;;31.15;18.33;;;;;;;;;;6249024;28;20069;-65
2022/01/28 17:12:29;;;;;;;31.30;18.77;;;;;;;;;;6254354;28;20052;-65
2022/01/28 17:15:32;;;;;;;25.42;14.55;;;;;;;;;;6254118;28;20140;-65
2022/01/28 17:18:34;;;;;;;19.65;12.07;;;;;;;;;;6255591;28;20430;-65
2022/01/28 17:21:36;;;;;;;15.88;8.52;;;;;;;;;;6252519;28;20467;-65
2022/01/28 17:24:37;;;;;;;16.55;8.43;;;;;;;;;;6254361;28;20144;-64
2022/01/28 17:27:39;;;;;;;15.88;8.88;;;;;;;;;;6252802;28;20176;-65
2022/01/28 17:30:43;;;;;;;16.20;9.80;;;;;;;;;;6252908;28;20069;-65
2022/01/28 17:33:44;;;;;;;14.63;8.73;;;;;;;;;;6254853;28;20045;-65
2022/01/28 17:36:46;;;;;;;17.23;9.02;;;;;;;;;;6251068;28;20154;-65
2022/01/28 17:39:47;;;;;;;16.33;8.10;;;;;;;;;;6254837;28;20142;-65
2022/01/28 17:42:49;;;;;;;15.75;7.80;;;;;;;;;;6260176;28;20065;-65
2022/01/28 17:45:52;;;;;;;15.75;8.25;;;;;;;;;;6260722;28;20045;-65
2022/01/28 17:48:53;;;;;;;15.48;7.55;;;;;;;;;;6253421;28;20187;-64
2022/01/28 17:51:55;;;;;;;11.93;6.80;;;;;;;;;;6251465;28;20513;-65
2022/01/28 17:54:57;;;;;;;13.20;6.88;;;;;;;;;;6255526;28;20053;-65
2022/01/28 17:57:58;;;;;;;13.43;7.35;;;;;;;;;;6250750;28;20604;-64
2022/01/28 18:01:02;;;;;;;10.70;5.82;;;;;;;;;;6260640;28;20057;-65
2022/01/28 18:04:04;;;;;;;9.80;6.20;;;;;;;;;;6254757;28;20060;-65
2022/01/28 18:07:06;;;;;;;11.55;6.22;;;;;;;;;;6247253;28;20740;-65
2022/01/28 18:10:10;;;;;;;10.00;5.65;;;;;;;;;;6247113;28;20092;-65
2022/01/28 18:13:13;;;;;;;8.98;4.93;;;;;;;;;;6246952;28;20083;-65
2022/01/28 18:16:16;;;;;;;10.45;6.20;;;;;;;;;;6247820;28;20421;-65
2022/01/28 18:19:18;;;;;;;13.32;6.90;;;;;;;;;;6247493;28;20061;-64
2022/01/28 18:22:20;;;;;;;16.95;8.32;;;;;;;;;;6261249;28;20127;-65
2022/01/28 18:25:21;;;;;;;20.35;9.10;;;;;;;;;;6249372;28;20077;-65
2022/01/28 18:28:23;;;;;;;18.48;8.27;;;;;;;;;;6251267;28;20123;-65
2022/01/28 18:31:26;;;;;;;15.75;9.45;;;;;;;;;;6255285;28;20083;-65
2022/01/28 18:34:28;;;;;;;16.40;9.25;;;;;;;;;;6255962;28;20557;-65
2022/01/28 18:37:29;;;;;;;25.20;9.23;;;;;;;;;;6258959;28;20175;-65
2022/01/28 18:40:31;;;;;;;18.65;10.40;;;;;;;;;;6260449;28;20136;-65